aviador You're here:

KTVF Decoded Metar

THIEF RIVER in MN, USA
Report Time2017-07-23 00:01:00
UTC Time2017-07-23 00:52:47
Flight Rules vfr VFR
Wind330° at 14 kt
W.Decomp.*RWY 31: 13.5 kt HW 3.6 kt RCW
RWY 03: 5.9 kt HW 12.7 kt LCW
W.Rank330° ranks 4
Current wind is above 330° avg. (10.6)
Visibility9999 m
Phenomena:N/A
Clouds:Few 085 Hf
Scattered 110 Hf
Expected CloudBase > 2,800 ft AGL from Temp-Dew spread
CeilingNone
Temp21°C (ISA +8)
Dew Point14°C (64% RH)
AAT17.2°C
QNH1011 hPa
Density Alt2,356 ft
Elevation1,115 ft
Report Wrong Elevation
Raw Report
KTVF 230001Z AUTO 33014KT 10SM FEW085 SCT110 21/14 A2986 RMK AO2
PK WND 33027/2335 SLP110 60000 T02060144 10256 20206
51004=

Extra information for KTVF:More info

Metar Taf Metar & Taf Last 4 Metars F.Rules Stats Wind Profile Meteogram Temp Stats Airport Information Weather charts Add Link Nearby VenuesMetar ALERT Operation Metar Decoded Social comments

AIRNAV info for KTVF